Eversley, United Kingdom
Current Conditions -  °F | °C
As of 7:20 PM on Monday 22 Dec 2014 (Local Time) from EGLF Reporting Station
Broken Clouds Broken Clouds  
Wind Chill: 52°   Ceiling: 3000
Heat Index: 52°   Visibility: 6mi
Dew Point: 43°   Wind: 22mph
Humidity: 71%   Direction: 240°WSW
Pressure: 30.09"   Gusts: 36mph
Location:  51.35°N, 0.89°W
Report Text: EGLF 221920Z 24019G31KT 9999 BKN030 11/06 Q1019
Loading
Personal Weather Stations






























Interactive Weather Map New forecast layout! Learn more

10-Day Weather Forecast

Advertisements
Track Severe Weather on mobile